Time;durP1;ratioP1;P1;durP2;ratioP2;P2;SDS_P1;SDS_P2;PMS_P1;PMS_P2;Temp;Humidity;BMP_temperature;BMP_pressure;BME280_temperature;BME280_humidity;BME280_pressure;Samples;Min_cycle;Max_cycle;Signal;HPM_P1;HPM_P2
2021/11/22 00:00:30;;;;;;;;;;;;;;;21.80;51.08;101696.66;2074602;28;1047;-65
2021/11/22 00:01:33;;;;;;;;;;;;;;;21.80;52.56;101691.28;2074980;28;1033;-65
2021/11/22 00:02:34;;;;;;;;;;;;;;;21.77;51.11;101686.84;2074899;28;1914;-66
2021/11/22 00:03:34;;;;;;;;;;;;;;;21.77;51.96;101691.34;2074964;28;852;-66
2021/11/22 00:04:34;;;;;;;;;;;;;;;21.81;50.44;101692.16;2075004;28;1032;-66
2021/11/22 00:05:35;;;;;;;;;;;;;;;21.83;50.42;101693.00;2074723;28;908;-65
2021/11/22 00:06:35;;;;;;;;;;;;;;;21.84;50.69;101695.66;2074861;28;871;-66
2021/11/22 00:07:35;;;;;;;;;;;;;;;21.77;51.26;101699.44;2075013;28;796;-66
2021/11/22 00:08:36;;;;;;;;;;;;;;;21.77;53.26;101699.44;2074946;28;971;-66
2021/11/22 00:09:36;;;;;;;;;;;;;;;21.72;53.33;101699.56;2074922;28;977;-65
2021/11/22 00:10:36;;;;;;;;;;;;;;;21.77;52.94;101699.44;2074977;28;844;-66
2021/11/22 00:11:36;;;;;;;;;;;;;;;21.75;51.38;101706.69;2074825;28;721;-65
2021/11/22 00:12:37;;;;;;;;;;;;;;;21.70;52.17;101703.22;2074966;28;785;-66
2021/11/22 00:13:38;;;;;;;;;;;;;;;21.73;52.80;101706.72;2074819;28;1718;-65
2021/11/22 00:14:38;;;;;;;;;;;;;;;21.71;52.33;101704.97;2074792;28;1048;-66
2021/11/22 00:15:39;;;;;;;;;;;;;;;21.71;54.78;101707.69;2074878;28;799;-65
2021/11/22 00:16:39;;;;;;;;;;;;;;;21.74;50.08;101702.22;2074886;28;839;-65
2021/11/22 00:17:40;;;;;;;;;;;;;;;21.72;53.99;101704.97;2074930;28;812;-65
2021/11/22 00:18:40;;;;;;;;;;;;;;;21.65;51.00;101711.41;2074972;28;831;-67
2021/11/22 00:19:40;;;;;;;;;;;;;;;21.59;52.41;101706.13;2074551;28;837;-65
2021/11/22 00:20:40;;;;;;;;;;;;;;;21.63;52.46;101713.28;2074245;28;931;-66
2021/11/22 00:21:40;;;;;;;;;;;;;;;21.65;55.58;101711.41;2074325;28;831;-65
2021/11/22 00:22:43;;;;;;;;;;;;;;;21.65;52.72;101719.50;2074863;28;1886;-65
2021/11/22 00:23:43;;;;;;;;;;;;;;;21.72;51.38;101722.94;2074979;28;815;-64
2021/11/22 00:24:44;;;;;;;;;;;;;;;21.68;51.06;101719.44;2074790;28;973;-65
2021/11/22 00:25:44;;;;;;;;;;;;;;;21.63;52.13;101721.34;2074859;28;834;-64
2021/11/22 00:26:44;;;;;;;;;;;;;;;21.66;51.82;101720.38;2074897;28;978;-66
2021/11/22 00:27:45;;;;;;;;;;;;;;;21.66;51.41;101713.19;2074813;28;780;-65
2021/11/22 00:28:45;;;;;;;;;;;;;;;21.55;53.62;101716.09;2074908;28;913;-65
2021/11/22 00:29:45;;;;;;;;;;;;;;;21.56;51.42;101715.16;2074901;28;871;-65
2021/11/22 00:30:45;;;;;;;;;;;;;;;21.50;51.31;101712.63;2074793;28;757;-65
2021/11/22 00:31:48;;;;;;;;;;;;;;;21.50;53.57;101711.75;2074887;28;1028;-64
2021/11/22 00:32:49;;;;;;;;;;;;;;;21.52;52.40;101712.59;2074883;28;990;-65
2021/11/22 00:33:50;;;;;;;;;;;;;;;21.55;52.28;101709.84;2074700;28;808;-65
2021/11/22 00:34:55;;;;;;;;;;;;;;;21.55;52.42;101713.41;2074865;28;799;-65
2021/11/22 00:35:56;;;;;;;;;;;;;;;21.57;52.27;101713.38;2075130;28;785;-65
2021/11/22 00:36:56;;;;;;;;;;;;;;;21.54;52.63;101717.03;2074596;28;1332;-66
2021/11/22 00:37:56;;;;;;;;;;;;;;;21.58;51.30;101710.63;2074873;28;763;-64
2021/11/22 00:38:57;;;;;;;;;;;;;;;21.53;52.41;101704.47;2067550;28;1443;-65
2021/11/22 00:39:57;;;;;;;;;;;;;;;21.54;54.07;101714.31;2066753;28;1295;-65
2021/11/22 00:40:57;;;;;;;;;;;;;;;21.52;53.70;101718.00;2066800;28;945;-65
2021/11/22 00:41:57;;;;;;;;;;;;;;;21.55;51.27;101717.91;2066600;28;1890;-66
2021/11/22 00:42:58;;;;;;;;;;;;;;;21.57;52.55;101721.47;2066732;28;852;-65
2021/11/22 00:43:58;;;;;;;;;;;;;;;21.51;52.77;101727.00;2066706;28;831;-65
2021/11/22 00:44:59;;;;;;;;;;;;;;;21.60;50.36;101719.56;2066334;28;1037;-65
2021/11/22 00:45:59;;;;;;;;;;;;;;;21.56;53.55;101722.38;2066746;28;778;-65
2021/11/22 00:46:59;;;;;;;;;;;;;;;21.45;51.41;101718.13;2066712;28;808;-65
2021/11/22 00:48:01;;;;;;;;;;;;;;;21.53;51.01;101719.75;2066692;28;990;-66
2021/11/22 00:49:01;;;;;;;;;;;;;;;21.57;50.27;101718.78;2066729;28;1220;-65
2021/11/22 00:50:01;;;;;;;;;;;;;;;21.57;51.23;101722.34;2066583;28;863;-65
2021/11/22 00:51:02;;;;;;;;;;;;;;;21.51;52.33;101722.47;2066993;28;1009;-65
2021/11/22 00:52:03;;;;;;;;;;;;;;;21.51;51.09;101724.31;2068078;28;1342;-66
2021/11/22 00:53:03;;;;;;;;;;;;;;;21.50;53.54;101725.22;2068114;28;1181;-65
2021/11/22 00:54:03;;;;;;;;;;;;;;;21.46;54.81;101728.00;2068192;28;780;-65
2021/11/22 00:55:05;;;;;;;;;;;;;;;21.53;52.22;101728.72;2068229;28;978;-65
2021/11/22 00:56:05;;;;;;;;;;;;;;;21.51;52.31;101727.00;2067949;28;1888;-65
2021/11/22 00:57:05;;;;;;;;;;;;;;;21.52;50.54;101732.34;2068209;28;1327;-64
2021/11/22 00:58:05;;;;;;;;;;;;;;;21.51;50.92;101735.97;2067865;28;882;-65
2021/11/22 00:59:05;;;;;;;;;;;;;;;21.55;49.58;101734.09;2068229;28;982;-65
2021/11/22 01:00:07;;;;;;;;;;;;;;;21.52;53.27;101726.06;2067541;28;771;-65
2021/11/22 01:01:07;;;;;;;;;;;;;;;21.45;51.64;101736.13;2067639;28;897;-65
2021/11/22 01:02:08;;;;;;;;;;;;;;;21.50;51.75;101730.63;2067994;28;1973;-66
2021/11/22 01:03:08;;;;;;;;;;;;;;;21.43;51.35;101725.38;2068114;28;809;-65
2021/11/22 01:04:08;;;;;;;;;;;;;;;21.40;54.02;101730.81;2068198;28;763;-66
2021/11/22 01:05:08;;;;;;;;;;;;;;;21.48;52.06;101731.53;2068130;28;960;-65
2021/11/22 01:06:09;;;;;;;;;;;;;;;21.45;52.15;101734.31;2067899;28;895;-65
2021/11/22 01:07:09;;;;;;;;;;;;;;;21.49;50.19;101735.09;2068055;28;863;-65
2021/11/22 01:08:09;;;;;;;;;;;;;;;21.51;51.68;101729.69;2068098;28;904;-64
2021/11/22 01:09:09;;;;;;;;;;;;;;;21.50;50.35;101734.19;2068095;28;982;-65
2021/11/22 01:10:10;;;;;;;;;;;;;;;21.42;52.25;101736.19;2068042;28;788;-66
2021/11/22 01:11:10;;;;;;;;;;;;;;;21.35;52.16;101746.22;2068054;28;1299;-65
2021/11/22 01:12:10;;;;;;;;;;;;;;;21.27;51.91;101745.50;2067998;28;1037;-65
2021/11/22 01:13:11;;;;;;;;;;;;;;;21.27;52.78;101741.00;2068068;28;970;-65
2021/11/22 01:14:12;;;;;;;;;;;;;;;21.30;54.26;101742.72;2067957;28;819;-65
2021/11/22 01:15:14;;;;;;;;;;;;;;;21.39;51.32;101737.13;2068076;28;1048;-65
2021/11/22 01:16:14;;;;;;;;;;;;;;;21.41;52.05;101740.69;2068042;28;867;-66
2021/11/22 01:17:15;;;;;;;;;;;;;;;21.49;53.69;101732.41;2067902;28;870;-65
2021/11/22 01:18:15;;;;;;;;;;;;;;;21.43;50.82;101736.16;2068013;28;852;-65
2021/11/22 01:19:16;;;;;;;;;;;;;;;21.36;51.15;101739.91;2068066;28;827;-65
2021/11/22 01:20:17;;;;;;;;;;;;;;;21.40;51.62;101748.81;2067687;28;737;-65
2021/11/22 01:21:17;;;;;;;;;;;;;;;21.35;51.39;101738.13;2068095;28;792;-64
2021/11/22 01:22:18;;;;;;;;;;;;;;;21.34;52.02;101733.66;2067920;28;1950;-65
2021/11/22 01:23:18;;;;;;;;;;;;;;;21.40;50.97;101738.91;2067227;28;863;-65
2021/11/22 01:24:18;;;;;;;;;;;;;;;21.38;51.47;101737.19;2067421;28;828;-66
2021/11/22 01:25:19;;;;;;;;;;;;;;;21.39;52.65;101737.13;2068019;28;1017;-65
2021/11/22 01:26:19;;;;;;;;;;;;;;;21.39;51.06;101734.44;2067989;28;813;-65
2021/11/22 01:27:19;;;;;;;;;;;;;;;21.38;51.79;101740.75;2068052;28;954;-66
2021/11/22 01:28:19;;;;;;;;;;;;;;;21.42;51.27;101737.06;2067860;28;1018;-65
2021/11/22 01:29:20;;;;;;;;;;;;;;;21.42;50.49;101731.69;2067960;28;837;-66
2021/11/22 01:30:20;;;;;;;;;;;;;;;21.38;51.24;101738.06;2067930;28;795;-65
2021/11/22 01:31:20;;;;;;;;;;;;;;;21.42;51.34;101737.06;2067715;28;760;-66
2021/11/22 01:32:21;;;;;;;;;;;;;;;21.37;51.72;101733.59;2067902;28;840;-63
2021/11/22 01:33:21;;;;;;;;;;;;;;;21.45;50.98;101734.31;2067967;28;863;-63
2021/11/22 01:34:21;;;;;;;;;;;;;;;21.38;52.11;101735.38;2067527;28;776;-65
2021/11/22 01:35:22;;;;;;;;;;;;;;;21.33;52.53;101737.28;2067928;28;824;-65
2021/11/22 01:36:22;;;;;;;;;;;;;;;21.38;52.56;101738.06;2067913;28;1158;-65
2021/11/22 01:37:22;;;;;;;;;;;;;;;21.43;50.95;101736.16;2067694;28;986;-66
2021/11/22 01:38:23;;;;;;;;;;;;;;;21.36;54.12;101741.72;2070420;28;1170;-66
2021/11/22 01:39:23;;;;;;;;;;;;;;;21.36;50.96;101739.91;2075970;28;957;-65
2021/11/22 01:40:24;;;;;;;;;;;;;;;21.32;52.24;101743.59;2075647;28;985;-65
2021/11/22 01:41:24;;;;;;;;;;;;;;;21.27;52.52;101743.69;2076064;28;867;-64
2021/11/22 01:42:25;;;;;;;;;;;;;;;21.36;50.88;101737.19;2075890;28;1890;-65
2021/11/22 01:43:25;;;;;;;;;;;;;;;21.40;50.92;101738.91;2075937;28;1047;-66
2021/11/22 01:44:25;;;;;;;;;;;;;;;21.37;51.24;101733.59;2075247;28;855;-63
2021/11/22 01:45:26;;;;;;;;;;;;;;;21.30;51.68;101737.34;2075277;28;719;-62
2021/11/22 01:46:27;;;;;;;;;;;;;;;21.30;51.99;101737.34;2075421;28;820;-64
2021/11/22 01:47:27;;;;;;;;;;;;;;;21.26;52.00;101738.31;2075998;28;784;-63
2021/11/22 01:48:27;;;;;;;;;;;;;;;21.23;50.89;101736.59;2075785;28;852;-63
2021/11/22 01:49:28;;;;;;;;;;;;;;;21.32;51.66;101735.50;2075938;28;1093;-61
2021/11/22 01:50:28;;;;;;;;;;;;;;;21.38;51.36;101737.19;2075877;28;816;-60
2021/11/22 01:51:28;;;;;;;;;;;;;;;21.38;50.55;101734.50;2075574;28;1389;-59
2021/11/22 01:52:29;;;;;;;;;;;;;;;21.37;51.91;101744.38;2075781;28;1017;-61
2021/11/22 01:53:29;;;;;;;;;;;;;;;21.43;51.42;101743.38;2075875;28;812;-61
2021/11/22 01:54:29;;;;;;;;;;;;;;;21.42;51.81;101744.28;2075867;28;974;-61
2021/11/22 01:55:30;;;;;;;;;;;;;;;21.44;50.89;101743.31;2075932;28;809;-64
2021/11/22 01:56:30;;;;;;;;;;;;;;;21.45;50.88;101744.22;2075421;28;1062;-64
2021/11/22 01:57:32;;;;;;;;;;;;;;;21.40;51.47;101740.72;2075817;28;880;-65
2021/11/22 01:58:32;;;;;;;;;;;;;;;21.43;51.79;101755.00;2075252;28;780;-65
2021/11/22 01:59:32;;;;;;;;;;;;;;;21.46;50.74;101754.06;2075069;28;776;-65
2021/11/22 02:00:35;;;;;;;;;;;;;;;21.41;51.81;101754.16;2075211;28;958;-65
2021/11/22 02:01:35;;;;;;;;;;;;;;;21.42;52.12;101750.53;2069004;28;2212;-65
2021/11/22 02:02:35;;;;;;;;;;;;;;;21.32;56.89;101755.25;2066727;28;1910;-65
2021/11/22 02:03:35;;;;;;;;;;;;;;;21.33;50.60;101756.13;2067174;28;982;-65
2021/11/22 02:04:36;;;;;;;;;;;;;;;21.28;53.02;101755.34;2067714;28;923;-65
2021/11/22 02:05:36;;;;;;;;;;;;;;;21.30;51.57;101748.13;2067649;28;792;-65
2021/11/22 02:06:36;;;;;;;;;;;;;;;21.31;51.35;101749.91;2067732;28;1009;-65
2021/11/22 02:07:37;;;;;;;;;;;;;;;21.31;52.31;101755.28;2067650;28;1172;-65
2021/11/22 02:08:37;;;;;;;;;;;;;;;21.25;54.58;101755.41;2067364;28;1065;-65
2021/11/22 02:09:37;;;;;;;;;;;;;;;21.27;51.49;101753.56;2067661;28;792;-65
2021/11/22 02:10:38;;;;;;;;;;;;;;;21.22;52.27;101764.47;2067647;28;982;-65
2021/11/22 02:11:39;;;;;;;;;;;;;;;21.33;50.62;101759.72;2067652;28;1068;-65
2021/11/22 02:12:39;;;;;;;;;;;;;;;21.39;51.00;101756.00;2067763;28;827;-65
2021/11/22 02:13:40;;;;;;;;;;;;;;;21.40;51.21;101751.50;2067477;28;833;-65
2021/11/22 02:14:40;;;;;;;;;;;;;;;21.33;52.59;101756.13;2067611;28;1177;-65
2021/11/22 02:15:41;;;;;;;;;;;;;;;21.38;51.09;101756.06;2067622;28;808;-65
2021/11/22 02:16:41;;;;;;;;;;;;;;;21.33;51.67;101758.84;2067310;28;787;-65
2021/11/22 02:17:42;;;;;;;;;;;;;;;21.24;52.24;101753.63;2067613;28;969;-65
2021/11/22 02:18:43;;;;;;;;;;;;;;;21.22;53.01;101758.19;2067605;28;1009;-65
2021/11/22 02:19:55;;;;;;;;;;;;;;;21.24;51.34;101759.03;2067428;28;838;-65
2021/11/22 02:20:55;;;;;;;;;;;;;;;21.29;52.40;101757.13;2067574;28;843;-65
2021/11/22 02:21:56;;;;;;;;;;;;;;;21.34;51.12;101755.22;2067401;28;1894;-64
2021/11/22 02:22:57;;;;;;;;;;;;;;;21.35;51.31;101756.13;2067444;28;823;-65
2021/11/22 02:23:58;;;;;;;;;;;;;;;21.28;51.32;101755.34;2067561;28;854;-65
2021/11/22 02:24:59;;;;;;;;;;;;;;;21.31;50.23;101749.91;2067648;28;839;-65
2021/11/22 02:25:59;;;;;;;;;;;;;;;21.29;52.13;101749.03;2067584;28;910;-65
2021/11/22 02:26:59;;;;;;;;;;;;;;;21.30;51.29;101749.03;2067580;28;788;-65
2021/11/22 02:28:00;;;;;;;;;;;;;;;21.31;51.53;101753.50;2067511;28;843;-65
2021/11/22 02:29:00;;;;;;;;;;;;;;;21.30;50.94;101750.81;2067651;28;1366;-66
2021/11/22 02:30:00;;;;;;;;;;;;;;;21.20;51.89;101749.28;2067315;28;994;-65
2021/11/22 02:31:01;;;;;;;;;;;;;;;21.24;52.25;101750.94;2067464;28;978;-65
2021/11/22 02:32:01;;;;;;;;;;;;;;;21.26;52.30;101752.69;2067455;28;820;-65
2021/11/22 02:33:03;;;;;;;;;;;;;;;21.26;52.64;101747.31;2066720;28;931;-66
2021/11/22 02:34:07;;;;;;;;;;;;;;;21.30;50.94;101746.31;2066992;28;960;-65
2021/11/22 02:35:10;;;;;;;;;;;;;;;21.28;51.36;101755.34;2067445;28;820;-65
2021/11/22 02:36:10;;;;;;;;;;;;;;;21.26;51.27;101751.81;2067447;28;835;-65
2021/11/22 02:37:11;;;;;;;;;;;;;;;21.25;51.69;101750.03;2067547;28;772;-66
2021/11/22 02:38:15;;;;;;;;;;;;;;;21.29;51.50;101751.72;2068223;28;1182;-65
2021/11/22 02:39:15;;;;;;;;;;;;;;;21.26;52.94;101751.81;2075572;28;977;-65
2021/11/22 02:40:15;;;;;;;;;;;;;;;21.20;51.59;101746.56;2075480;28;1021;-65
2021/11/22 02:41:16;;;;;;;;;;;;;;;21.29;50.67;101741.84;2075200;28;843;-65
2021/11/22 02:42:27;;;;;;;;;;;;;;;21.32;50.62;101741.78;2075435;28;1949;-64
2021/11/22 02:43:28;;;;;;;;;;;;;;;21.25;51.63;101744.63;2075569;28;1232;-65
2021/11/22 02:44:29;;;;;;;;;;;;;;;21.28;52.54;101745.47;2075488;28;764;-65
2021/11/22 02:45:29;;;;;;;;;;;;;;;21.24;51.42;101734.78;2075561;28;850;-65
2021/11/22 02:46:29;;;;;;;;;;;;;;;21.32;52.04;101735.50;2075399;28;898;-65
2021/11/22 02:47:29;;;;;;;;;;;;;;;21.29;50.47;101740.94;2075494;28;867;-65
2021/11/22 02:48:30;;;;;;;;;;;;;;;21.25;51.80;101739.25;2075318;28;799;-65
2021/11/22 02:49:30;;;;;;;;;;;;;;;21.28;50.21;101733.78;2075157;28;974;-65
2021/11/22 02:50:30;;;;;;;;;;;;;;;21.27;51.32;101741.00;2075490;28;827;-65
2021/11/22 02:51:30;;;;;;;;;;;;;;;21.23;52.10;101742.00;2075463;28;922;-65
2021/11/22 02:52:30;;;;;;;;;;;;;;;21.22;52.21;101740.22;2075436;28;986;-65
2021/11/22 02:53:32;;;;;;;;;;;;;;;21.14;52.22;101737.69;2075313;28;974;-66
2021/11/22 02:54:32;;;;;;;;;;;;;;;21.22;50.72;101736.63;2075510;28;945;-65
2021/11/22 02:55:32;;;;;;;;;;;;;;;21.26;51.53;101739.22;2075430;28;974;-66
2021/11/22 02:56:33;;;;;;;;;;;;;;;21.25;51.97;101731.16;2075180;28;1261;-65
2021/11/22 02:57:33;;;;;;;;;;;;;;;21.24;51.56;101732.09;2075131;28;821;-65
2021/11/22 02:58:35;;;;;;;;;;;;;;;21.23;50.90;101735.69;2075373;28;986;-65
2021/11/22 02:59:40;;;;;;;;;;;;;;;21.25;51.15;101731.16;2075404;28;870;-65
2021/11/22 03:00:40;;;;;;;;;;;;;;;21.29;51.46;101730.19;2075433;28;895;-65
2021/11/22 03:01:41;;;;;;;;;;;;;;;21.30;50.78;101722.06;2075349;28;772;-66
2021/11/22 03:02:42;;;;;;;;;;;;;;;21.25;51.84;101729.38;2075224;28;1914;-65
2021/11/22 03:03:43;;;;;;;;;;;;;;;21.25;51.45;101723.97;2075382;28;846;-65
2021/11/22 03:04:43;;;;;;;;;;;;;;;21.20;50.87;101723.19;2075267;28;827;-65
2021/11/22 03:05:44;;;;;;;;;;;;;;;;;;2075303;28;792;-65
2021/11/22 03:06:45;;;;;;;;;;;;;;;21.24;51.78;101721.31;2075321;28;1065;-65
2021/11/22 03:07:45;;;;;;;;;;;;;;;;;;2075056;28;871;-65
2021/11/22 03:08:46;;;;;;;;;;;;;;;21.24;50.66;101721.31;2075336;28;882;-66
2021/11/22 03:09:46;;;;;;;;;;;;;;;21.16;52.43;101725.09;2075379;28;972;-65
2021/11/22 03:10:46;;;;;;;;;;;;;;;21.18;50.81;101716.94;2075028;28;1212;-65
2021/11/22 03:11:47;;;;;;;;;;;;;;;21.26;51.98;101725.75;2075368;28;1205;-65
2021/11/22 03:12:47;;;;;;;;;;;;;;;21.23;51.35;101715.03;2075237;28;867;-65
2021/11/22 03:13:48;;;;;;;;;;;;;;;21.11;51.87;101710.81;2074457;28;827;-65
2021/11/22 03:14:49;;;;;;;;;;;;;;;21.06;52.12;101714.53;2075156;28;1033;-66
2021/11/22 03:15:49;;;;;;;;;;;;;;;21.12;51.88;101720.69;2075336;28;1037;-64
2021/11/22 03:16:49;;;;;;;;;;;;;;;21.20;50.43;101720.50;2075377;28;931;-65
2021/11/22 03:17:49;;;;;;;;;;;;;;;21.22;51.23;101728.53;2074567;28;983;-65
2021/11/22 03:18:49;;;;;;;;;;;;;;;21.20;52.72;101719.63;2074696;28;883;-65
2021/11/22 03:19:50;;;;;;;;;;;;;;;21.17;52.36;101724.16;2075196;28;998;-66
2021/11/22 03:20:50;;;;;;;;;;;;;;;21.16;51.57;101724.19;2075447;28;680;-65
2021/11/22 03:21:51;;;;;;;;;;;;;;;21.18;51.56;101716.94;2075197;28;997;-66
2021/11/22 03:22:51;;;;;;;;;;;;;;;21.17;50.97;101721.47;2075124;28;1890;-65
2021/11/22 03:23:51;;;;;;;;;;;;;;;21.27;50.57;101726.63;2075234;28;823;-65
2021/11/22 03:24:52;;;;;;;;;;;;;;;21.12;52.25;101726.06;2074988;28;832;-65
2021/11/22 03:25:52;;;;;;;;;;;;;;;21.14;51.42;101720.63;2074977;28;998;-66
2021/11/22 03:26:52;;;;;;;;;;;;;;;21.17;51.58;101737.63;2075259;28;856;-65
2021/11/22 03:27:53;;;;;;;;;;;;;;;21.11;51.19;101732.38;2075148;28;985;-65
2021/11/22 03:28:53;;;;;;;;;;;;;;;21.10;52.58;101733.28;2075141;28;990;-65
2021/11/22 03:29:53;;;;;;;;;;;;;;;21.11;52.67;101731.47;2075155;28;875;-66
2021/11/22 03:30:53;;;;;;;;;;;;;;;21.18;51.62;101733.13;2074951;28;1146;-65
2021/11/22 03:31:53;;;;;;;;;;;;;;;21.13;50.76;101732.31;2075148;28;851;-65
2021/11/22 03:32:54;;;;;;;;;;;;;;;21.18;51.40;101734.03;2075146;28;1056;-65
2021/11/22 03:33:54;;;;;;;;;;;;;;;21.22;51.18;101739.31;2074864;28;910;-65
2021/11/22 03:34:55;;;;;;;;;;;;;;;21.20;52.58;101733.97;2075135;28;835;-65
2021/11/22 03:35:57;;;;;;;;;;;;;;;21.23;50.11;101730.31;2075250;28;791;-66
2021/11/22 03:37:03;;;;;;;;;;;;;;;21.20;50.76;101730.41;2074757;28;795;-64
2021/11/22 03:38:03;;;;;;;;;;;;;;;21.22;50.63;101732.13;2075166;28;834;-66
2021/11/22 03:39:10;;;;;;;;;;;;;;;21.16;52.40;101734.97;2067109;28;843;-65
2021/11/22 03:40:11;;;;;;;;;;;;;;;21.17;51.15;101732.25;2067026;28;831;-65
2021/11/22 03:41:16;;;;;;;;;;;;;;;21.16;50.68;101730.47;2067084;28;768;-64
2021/11/22 03:42:17;;;;;;;;;;;;;;;21.16;51.19;101727.78;2066955;28;1974;-65
2021/11/22 03:43:27;;;;;;;;;;;;;;;21.16;51.63;101725.09;2067046;28;871;-64
2021/11/22 03:44:28;;;;;;;;;;;;;;;21.10;52.47;101722.53;2067031;28;854;-65
2021/11/22 03:45:28;;;;;;;;;;;;;;;21.13;51.54;101727.84;2066870;28;1021;-66
2021/11/22 03:46:28;;;;;;;;;;;;;;;21.12;51.08;101723.38;2066965;28;804;-65
2021/11/22 03:47:28;;;;;;;;;;;;;;;21.15;51.31;101728.69;2066834;28;1029;-65
2021/11/22 03:48:30;;;;;;;;;;;;;;;21.13;51.14;101721.56;2066928;28;1030;-66
2021/11/22 03:49:33;;;;;;;;;;;;;;;21.17;51.18;101725.97;2066951;28;879;-64
2021/11/22 03:50:34;;;;;;;;;;;;;;;21.09;52.58;101730.63;2066730;28;911;-65
2021/11/22 03:51:34;;;;;;;;;;;;;;;21.13;51.06;101679.34;2066904;28;823;-65
2021/11/22 03:52:34;;;;;;;;;;;;;;;21.09;52.37;101682.13;2066901;28;978;-65
2021/11/22 03:53:35;;;;;;;;;;;;;;;21.13;52.89;101682.03;2066909;28;903;-65
2021/11/22 03:54:36;;;;;;;;;;;;;;;21.19;51.44;101675.63;2066950;28;894;-64
2021/11/22 03:55:36;;;;;;;;;;;;;;;21.15;52.25;101674.81;2067012;28;924;-65
2021/11/22 03:56:37;;;;;;;;;;;;;;;21.07;51.71;101655.25;2066889;28;1250;-66
2021/11/22 03:57:37;;;;;;;;;;;;;;;21.07;52.95;101657.03;2066914;28;889;-64
2021/11/22 03:58:38;;;;;;;;;;;;;;;21.07;51.96;101695.66;2066572;28;868;-65
2021/11/22 03:59:38;;;;;;;;;;;;;;;21.14;50.87;101747.56;2066872;28;1442;-66
2021/11/22 04:00:38;;;;;;;;;;;;;;;21.18;51.74;101733.13;2066887;28;970;-65
2021/11/22 04:01:39;;;;;;;;;;;;;;;21.14;50.68;101728.72;2066786;28;974;-65
2021/11/22 04:02:39;;;;;;;;;;;;;;;21.20;51.44;101719.63;2066847;28;1926;-66
2021/11/22 04:03:39;;;;;;;;;;;;;;;21.16;52.69;101719.69;2066910;28;1057;-65
2021/11/22 04:04:39;;;;;;;;;;;;;;;21.09;51.98;101711.75;2066840;28;978;-65
2021/11/22 04:05:40;;;;;;;;;;;;;;;21.09;50.77;101720.75;2066903;28;1008;-64
2021/11/22 04:06:40;;;;;;;;;;;;;;;21.16;51.45;101708.91;2066765;28;763;-65
2021/11/22 04:07:41;;;;;;;;;;;;;;;21.15;50.64;101711.63;2066891;28;797;-66
2021/11/22 04:08:41;;;;;;;;;;;;;;;21.08;51.54;101707.28;2066866;28;862;-64
2021/11/22 04:09:41;;;;;;;;;;;;;;;21.08;52.54;101708.19;2066555;28;841;-65
2021/11/22 04:10:42;;;;;;;;;;;;;;;21.09;51.73;101728.84;2066807;28;918;-66
2021/11/22 04:11:42;;;;;;;;;;;;;;;21.09;52.19;101723.44;2066979;28;878;-65
2021/11/22 04:12:42;;;;;;;;;;;;;;;21.12;52.03;101723.38;2066840;28;836;-66
2021/11/22 04:13:42;;;;;;;;;;;;;;;21.06;51.85;101734.28;2066850;28;1052;-65
2021/11/22 04:14:43;;;;;;;;;;;;;;;21.08;51.52;101737.81;2066762;28;1052;-65
2021/11/22 04:15:43;;;;;;;;;;;;;;;21.11;51.02;101727.00;2066560;28;780;-66
2021/11/22 04:16:43;;;;;;;;;;;;;;;21.16;51.25;101725.09;2066901;28;819;-64
2021/11/22 04:17:43;;;;;;;;;;;;;;;21.13;52.11;101735.94;2066857;28;1017;-65
2021/11/22 04:18:43;;;;;;;;;;;;;;;21.10;51.16;101736.00;2066817;28;888;-65
2021/11/22 04:19:44;;;;;;;;;;;;;;;21.17;50.57;101737.63;2066816;28;819;-65
2021/11/22 04:20:44;;;;;;;;;;;;;;;21.10;51.82;101729.69;2066676;28;1024;-65
2021/11/22 04:21:44;;;;;;;;;;;;;;;21.15;51.08;101739.47;2066816;28;974;-66
2021/11/22 04:22:44;;;;;;;;;;;;;;;21.10;51.97;101698.28;2066776;28;1886;-65
2021/11/22 04:23:45;;;;;;;;;;;;;;;21.08;52.37;101689.34;2066638;28;686;-65
2021/11/22 04:24:45;;;;;;;;;;;;;;;21.09;51.29;101690.22;2066811;28;977;-64
2021/11/22 04:25:45;;;;;;;;;;;;;;;21.02;52.22;101690.34;2068262;28;939;-65
2021/11/22 04:26:45;;;;;;;;;;;;;;;21.12;52.15;101690.16;2068092;28;1109;-66
2021/11/22 04:27:46;;;;;;;;;;;;;;;21.18;51.97;101692.69;2068456;28;843;-65
2021/11/22 04:28:47;;;;;;;;;;;;;;;21.13;51.91;101690.13;2068392;28;970;-65
2021/11/22 04:29:47;;;;;;;;;;;;;;;21.17;50.85;101694.53;2068389;28;1161;-66
2021/11/22 04:30:47;;;;;;;;;;;;;;;21.20;50.75;101692.69;2068455;28;823;-64
2021/11/22 04:31:48;;;;;;;;;;;;;;;21.08;53.17;101692.03;2068344;28;863;-65
2021/11/22 04:32:48;;;;;;;;;;;;;;;21.15;51.69;101698.16;2068397;28;970;-66
2021/11/22 04:33:48;;;;;;;;;;;;;;;21.12;52.02;101688.34;2068444;28;835;-66
2021/11/22 04:34:48;;;;;;;;;;;;;;;21.14;50.97;101691.00;2068307;28;864;-64
2021/11/22 04:35:48;;;;;;;;;;;;;;;21.16;52.00;101687.38;2068330;28;1073;-65
2021/11/22 04:36:49;;;;;;;;;;;;;;;21.12;50.99;101690.16;2068412;28;923;-66
2021/11/22 04:37:49;;;;;;;;;;;;;;;21.11;51.39;101688.38;2067999;28;851;-65
2021/11/22 04:38:49;;;;;;;;;;;;;;;21.20;50.75;101680.09;2074606;28;1197;-65
2021/11/22 04:39:49;;;;;;;;;;;;;;;21.13;52.75;101684.75;2076457;28;1366;-64
2021/11/22 04:40:50;;;;;;;;;;;;;;;21.06;51.66;101688.50;2076448;28;760;-65
2021/11/22 04:41:50;;;;;;;;;;;;;;;21.02;52.79;101698.41;2076416;28;912;-65
2021/11/22 04:42:51;;;;;;;;;;;;;;;21.08;51.61;101683.03;2076128;28;1886;-66
2021/11/22 04:43:52;;;;;;;;;;;;;;;21.05;52.31;101685.81;2076474;28;886;-65
2021/11/22 04:44:52;;;;;;;;;;;;;;;21.00;52.03;101685.91;2076427;28;887;-65
2021/11/22 04:45:53;;;;;;;;;;;;;;;21.06;52.42;101679.50;2076141;28;799;-65
2021/11/22 04:46:53;;;;;;;;;;;;;;;21.07;51.79;101682.19;2076394;28;1048;-65
2021/11/22 04:47:53;;;;;;;;;;;;;;;21.09;51.60;101685.72;2076345;28;845;-65
2021/11/22 04:48:53;;;;;;;;;;;;;;;21.09;52.87;101688.41;2076448;28;932;-66
2021/11/22 04:49:53;;;;;;;;;;;;;;;21.03;51.54;101688.56;2076366;28;804;-65
2021/11/22 04:50:54;;;;;;;;;;;;;;;21.10;51.71;101683.91;2076385;28;831;-65
2021/11/22 04:51:54;;;;;;;;;;;;;;;21.07;53.05;101682.19;2076472;28;1260;-64
2021/11/22 04:52:55;;;;;;;;;;;;;;;21.05;52.08;101686.72;2076352;28;1336;-65
2021/11/22 04:53:56;;;;;;;;;;;;;;;21.09;53.34;101693.81;2076209;28;824;-66
2021/11/22 04:54:56;;;;;;;;;;;;;;;21.14;51.97;101693.69;2076311;28;970;-65
2021/11/22 04:55:56;;;;;;;;;;;;;;;21.10;51.80;101679.41;2076380;28;1205;-65
2021/11/22 04:56:56;;;;;;;;;;;;;;;21.00;53.19;101680.53;2076210;28;1311;-65
2021/11/22 04:57:57;;;;;;;;;;;;;;;21.03;53.37;101685.84;2076298;28;847;-64
2021/11/22 04:58:57;;;;;;;;;;;;;;;21.10;52.25;101687.50;2075947;28;1013;-65
2021/11/22 04:59:57;;;;;;;;;;;;;;;21.10;51.27;101682.09;2076312;28;761;-66
2021/11/22 05:00:58;;;;;;;;;;;;;;;21.00;53.24;101694.00;2076349;28;990;-64
2021/11/22 05:01:58;;;;;;;;;;;;;;;21.02;52.49;101703.81;2076357;28;855;-64
2021/11/22 05:02:58;;;;;;;;;;;;;;;20.86;56.48;101673.63;2076257;28;1910;-65
2021/11/22 05:04:00;;;;;;;;;;;;;;;20.87;53.75;101656.56;2076245;28;808;-64
2021/11/22 05:05:00;;;;;;;;;;;;;;;21.08;57.51;101664.19;2076101;28;819;-65
2021/11/22 05:06:00;;;;;;;;;;;;;;;21.46;56.45;101678.59;2076282;28;812;-65
2021/11/22 05:07:01;;;;;;;;;;;;;;;21.68;55.32;101668.22;2076246;28;966;-64
2021/11/22 05:08:05;;;;;;;;;;;;;;;21.84;55.83;101665.09;2076254;28;944;-63
2021/11/22 05:09:05;;;;;;;;;;;;;;;21.97;57.73;101674.66;2076287;28;886;-63
2021/11/22 05:10:06;;;;;;;;;;;;;;;22.06;56.92;101676.25;2075965;28;839;-65
2021/11/22 05:11:07;;;;;;;;;;;;;;;22.16;55.55;101693.06;2076234;28;1287;-64
2021/11/22 05:12:07;;;;;;;;;;;;;;;22.30;55.55;101703.47;2076255;28;802;-63
2021/11/22 05:13:08;;;;;;;;;;;;;;;22.36;55.15;101716.81;2075878;28;879;-65
2021/11/22 05:14:10;;;;;;;;;;;;;;;22.43;54.77;101710.31;2076225;28;787;-66
2021/11/22 05:15:10;;;;;;;;;;;;;;;22.49;55.63;101714.69;2076240;28;832;-64
2021/11/22 05:16:10;;;;;;;;;;;;;;;22.58;54.81;101706.31;2075808;28;974;-65
2021/11/22 05:17:10;;;;;;;;;;;;;;;22.62;53.77;101704.44;2076172;28;820;-68
2021/11/22 05:18:11;;;;;;;;;;;;;;;22.69;52.96;101680.84;2076153;28;792;-66
2021/11/22 05:19:12;;;;;;;;;;;;;;;22.78;52.26;101677.88;2076109;28;930;-66